sensor_id;sensor_type;location;lat;lon;timestamp;P1;durP1;ratioP1;P2;durP2;ratioP2
72517;SDS011;60540;51.178;6.738;2024-03-23T00:55:50;7.32;;;3.30;;
72517;SDS011;60540;51.178;6.738;2024-03-23T00:58:35;7.72;;;3.22;;
72517;SDS011;60540;51.178;6.738;2024-03-23T01:01:19;12.38;;;4.25;;
72517;SDS011;60540;51.178;6.738;2024-03-23T01:04:03;8.93;;;3.80;;
72517;SDS011;60540;51.178;6.738;2024-03-23T01:06:47;12.48;;;3.72;;
72517;SDS011;60540;51.178;6.738;2024-03-23T01:09:31;10.10;;;4.53;;
72517;SDS011;60540;51.178;6.738;2024-03-23T01:12:15;14.27;;;4.93;;
72517;SDS011;60540;51.178;6.738;2024-03-23T01:14:59;10.45;;;4.85;;
72517;SDS011;60540;51.178;6.738;2024-03-23T01:17:43;9.77;;;4.45;;
72517;SDS011;60540;51.178;6.738;2024-03-23T01:20:27;13.23;;;5.10;;
72517;SDS011;60540;51.178;6.738;2024-03-23T01:23:11;9.07;;;3.42;;
72517;SDS011;60540;51.178;6.738;2024-03-23T01:25:55;8.95;;;3.50;;
72517;SDS011;60540;51.178;6.738;2024-03-23T01:28:39;8.13;;;3.47;;
72517;SDS011;60540;51.178;6.738;2024-03-23T01:31:23;6.88;;;1.70;;
72517;SDS011;60540;51.178;6.738;2024-03-23T01:34:07;6.80;;;1.52;;
72517;SDS011;60540;51.178;6.738;2024-03-23T01:36:52;3.72;;;0.88;;
72517;SDS011;60540;51.178;6.738;2024-03-23T01:39:36;6.65;;;1.10;;
72517;SDS011;60540;51.178;6.738;2024-03-23T01:42:20;4.68;;;1.17;;
72517;SDS011;60540;51.178;6.738;2024-03-23T01:45:05;4.13;;;0.95;;
72517;SDS011;60540;51.178;6.738;2024-03-23T01:47:52;4.00;;;1.17;;
72517;SDS011;60540;51.178;6.738;2024-03-23T01:50:36;4.78;;;1.20;;
72517;SDS011;60540;51.178;6.738;2024-03-23T01:53:21;3.90;;;1.02;;
72517;SDS011;60540;51.178;6.738;2024-03-23T01:56:07;4.07;;;1.35;;
72517;SDS011;60540;51.178;6.738;2024-03-23T01:58:51;3.78;;;1.00;;
72517;SDS011;60540;51.178;6.738;2024-03-23T02:01:35;4.72;;;1.10;;
72517;SDS011;60540;51.178;6.738;2024-03-23T02:04:22;3.55;;;1.40;;
72517;SDS011;60540;51.178;6.738;2024-03-23T02:07:06;2.80;;;0.80;;
72517;SDS011;60540;51.178;6.738;2024-03-23T02:09:51;4.07;;;1.30;;
72517;SDS011;60540;51.178;6.738;2024-03-23T02:12:36;5.18;;;1.10;;
72517;SDS011;60540;51.178;6.738;2024-03-23T02:15:21;3.38;;;1.33;;
72517;SDS011;60540;51.178;6.738;2024-03-23T02:18:06;4.10;;;1.00;;
72517;SDS011;60540;51.178;6.738;2024-03-23T02:20:51;4.28;;;0.95;;
72517;SDS011;60540;51.178;6.738;2024-03-23T02:23:35;4.03;;;1.30;;
72517;SDS011;60540;51.178;6.738;2024-03-23T02:26:19;5.57;;;1.20;;
72517;SDS011;60540;51.178;6.738;2024-03-23T02:29:03;5.57;;;1.20;;
72517;SDS011;60540;51.178;6.738;2024-03-23T02:31:48;3.83;;;1.20;;
72517;SDS011;60540;51.178;6.738;2024-03-23T02:34:32;4.25;;;1.15;;
72517;SDS011;60540;51.178;6.738;2024-03-23T02:37:16;3.97;;;0.88;;
72517;SDS011;60540;51.178;6.738;2024-03-23T02:40:00;5.85;;;1.52;;
72517;SDS011;60540;51.178;6.738;2024-03-23T02:42:44;5.32;;;1.25;;
72517;SDS011;60540;51.178;6.738;2024-03-23T02:45:28;3.78;;;1.20;;
72517;SDS011;60540;51.178;6.738;2024-03-23T02:48:13;5.32;;;1.33;;
72517;SDS011;60540;51.178;6.738;2024-03-23T02:50:57;2.63;;;1.10;;
72517;SDS011;60540;51.178;6.738;2024-03-23T02:53:41;6.30;;;1.52;;
72517;SDS011;60540;51.178;6.738;2024-03-23T02:56:25;4.07;;;1.08;;
72517;SDS011;60540;51.178;6.738;2024-03-23T02:59:09;3.22;;;1.27;;
72517;SDS011;60540;51.178;6.738;2024-03-23T03:01:54;5.90;;;1.48;;
72517;SDS011;60540;51.178;6.738;2024-03-23T03:04:38;7.70;;;2.08;;
72517;SDS011;60540;51.178;6.738;2024-03-23T03:07:22;6.97;;;2.00;;
72517;SDS011;60540;51.178;6.738;2024-03-23T03:10:06;3.35;;;1.13;;
72517;SDS011;60540;51.178;6.738;2024-03-23T03:12:52;4.03;;;1.25;;
72517;SDS011;60540;51.178;6.738;2024-03-23T03:15:36;6.10;;;1.42;;
72517;SDS011;60540;51.178;6.738;2024-03-23T03:18:21;3.97;;;1.17;;
72517;SDS011;60540;51.178;6.738;2024-03-23T03:21:05;2.92;;;1.13;;
72517;SDS011;60540;51.178;6.738;2024-03-23T03:23:54;3.40;;;1.20;;
72517;SDS011;60540;51.178;6.738;2024-03-23T03:26:40;6.53;;;1.23;;
72517;SDS011;60540;51.178;6.738;2024-03-23T03:29:24;4.38;;;1.25;;
72517;SDS011;60540;51.178;6.738;2024-03-23T03:32:08;4.60;;;1.10;;
72517;SDS011;60540;51.178;6.738;2024-03-23T03:34:52;3.05;;;1.38;;
72517;SDS011;60540;51.178;6.738;2024-03-23T03:37:37;4.85;;;1.30;;
72517;SDS011;60540;51.178;6.738;2024-03-23T03:40:21;4.88;;;1.30;;
72517;SDS011;60540;51.178;6.738;2024-03-23T03:43:05;7.45;;;1.27;;
72517;SDS011;60540;51.178;6.738;2024-03-23T03:45:53;4.18;;;1.50;;
72517;SDS011;60540;51.178;6.738;2024-03-23T03:48:38;6.43;;;1.48;;
72517;SDS011;60540;51.178;6.738;2024-03-23T03:51:22;3.85;;;1.08;;
72517;SDS011;60540;51.178;6.738;2024-03-23T03:54:06;4.13;;;1.40;;
72517;SDS011;60540;51.178;6.738;2024-03-23T03:56:50;4.68;;;1.35;;
72517;SDS011;60540;51.178;6.738;2024-03-23T03:59:47;6.53;;;1.27;;
72517;SDS011;60540;51.178;6.738;2024-03-23T04:02:31;6.63;;;1.30;;
72517;SDS011;60540;51.178;6.738;2024-03-23T04:05:15;3.22;;;1.13;;
72517;SDS011;60540;51.178;6.738;2024-03-23T04:07:59;3.53;;;1.23;;
72517;SDS011;60540;51.178;6.738;2024-03-23T04:10:43;5.15;;;1.45;;
72517;SDS011;60540;51.178;6.738;2024-03-23T04:13:27;9.30;;;1.50;;
72517;SDS011;60540;51.178;6.738;2024-03-23T04:16:11;4.53;;;1.33;;
72517;SDS011;60540;51.178;6.738;2024-03-23T04:18:55;5.68;;;1.48;;
72517;SDS011;60540;51.178;6.738;2024-03-23T04:21:40;3.88;;;1.50;;
72517;SDS011;60540;51.178;6.738;2024-03-23T04:24:24;3.13;;;1.13;;
72517;SDS011;60540;51.178;6.738;2024-03-23T04:27:10;4.63;;;1.58;;
72517;SDS011;60540;51.178;6.738;2024-03-23T04:29:54;6.50;;;1.60;;
72517;SDS011;60540;51.178;6.738;2024-03-23T04:32:39;6.20;;;1.73;;
72517;SDS011;60540;51.178;6.738;2024-03-23T04:35:24;8.05;;;1.95;;
72517;SDS011;60540;51.178;6.738;2024-03-23T04:38:11;5.00;;;1.50;;
72517;SDS011;60540;51.178;6.738;2024-03-23T04:40:56;3.45;;;1.40;;
72517;SDS011;60540;51.178;6.738;2024-03-23T04:43:40;6.43;;;1.35;;
72517;SDS011;60540;51.178;6.738;2024-03-23T04:46:24;4.60;;;1.90;;
72517;SDS011;60540;51.178;6.738;2024-03-23T04:49:08;6.60;;;1.67;;
72517;SDS011;60540;51.178;6.738;2024-03-23T04:51:53;5.28;;;2.00;;
72517;SDS011;60540;51.178;6.738;2024-03-23T04:54:38;7.85;;;2.13;;
72517;SDS011;60540;51.178;6.738;2024-03-23T04:57:24;8.10;;;1.95;;
72517;SDS011;60540;51.178;6.738;2024-03-23T05:00:08;4.90;;;1.65;;
72517;SDS011;60540;51.178;6.738;2024-03-23T05:03:00;6.25;;;1.60;;
72517;SDS011;60540;51.178;6.738;2024-03-23T05:05:45;10.60;;;2.67;;
72517;SDS011;60540;51.178;6.738;2024-03-23T05:08:29;4.55;;;1.67;;
72517;SDS011;60540;51.178;6.738;2024-03-23T05:11:14;5.47;;;1.67;;
72517;SDS011;60540;51.178;6.738;2024-03-23T05:13:59;7.35;;;1.70;;
72517;SDS011;60540;51.178;6.738;2024-03-23T05:16:43;8.35;;;1.70;;
72517;SDS011;60540;51.178;6.738;2024-03-23T05:19:28;6.10;;;1.65;;
72517;SDS011;60540;51.178;6.738;2024-03-23T05:22:12;6.32;;;2.25;;
72517;SDS011;60540;51.178;6.738;2024-03-23T05:24:56;9.20;;;2.25;;
72517;SDS011;60540;51.178;6.738;2024-03-23T05:27:41;5.88;;;2.22;;
72517;SDS011;60540;51.178;6.738;2024-03-23T05:30:24;4.88;;;1.85;;
72517;SDS011;60540;51.178;6.738;2024-03-23T05:33:09;6.53;;;2.45;;
72517;SDS011;60540;51.178;6.738;2024-03-23T05:35:57;8.50;;;2.45;;
72517;SDS011;60540;51.178;6.738;2024-03-23T05:38:42;9.38;;;2.33;;
72517;SDS011;60540;51.178;6.738;2024-03-23T05:41:26;7.43;;;2.00;;
72517;SDS011;60540;51.178;6.738;2024-03-23T05:44:12;8.48;;;2.28;;
72517;SDS011;60540;51.178;6.738;2024-03-23T05:46:56;7.45;;;2.80;;
72517;SDS011;60540;51.178;6.738;2024-03-23T05:49:40;10.45;;;2.58;;
72517;SDS011;60540;51.178;6.738;2024-03-23T05:52:27;8.07;;;2.60;;
72517;SDS011;60540;51.178;6.738;2024-03-23T05:55:12;9.60;;;2.65;;
72517;SDS011;60540;51.178;6.738;2024-03-23T05:57:56;6.00;;;2.75;;
72517;SDS011;60540;51.178;6.738;2024-03-23T06:00:40;12.82;;;2.75;;
72517;SDS011;60540;51.178;6.738;2024-03-23T06:03:26;5.10;;;2.20;;
72517;SDS011;60540;51.178;6.738;2024-03-23T06:06:10;7.78;;;2.05;;
72517;SDS011;60540;51.178;6.738;2024-03-23T06:08:56;5.28;;;2.15;;
72517;SDS011;60540;51.178;6.738;2024-03-23T06:11:41;7.35;;;2.75;;
72517;SDS011;60540;51.178;6.738;2024-03-23T06:14:25;6.65;;;2.35;;
72517;SDS011;60540;51.178;6.738;2024-03-23T06:17:09;5.90;;;2.40;;
72517;SDS011;60540;51.178;6.738;2024-03-23T06:19:53;5.85;;;2.40;;
72517;SDS011;60540;51.178;6.738;2024-03-23T06:22:37;7.82;;;2.70;;
72517;SDS011;60540;51.178;6.738;2024-03-23T06:25:21;7.47;;;2.70;;
72517;SDS011;60540;51.178;6.738;2024-03-23T06:28:05;5.53;;;2.47;;
72517;SDS011;60540;51.178;6.738;2024-03-23T06:30:49;8.10;;;2.45;;
72517;SDS011;60540;51.178;6.738;2024-03-23T06:33:34;6.43;;;2.75;;
72517;SDS011;60540;51.178;6.738;2024-03-23T06:36:18;8.43;;;2.60;;
72517;SDS011;60540;51.178;6.738;2024-03-23T06:39:04;12.70;;;3.28;;
72517;SDS011;60540;51.178;6.738;2024-03-23T06:41:54;11.25;;;2.67;;
72517;SDS011;60540;51.178;6.738;2024-03-23T06:44:38;8.90;;;2.85;;
72517;SDS011;60540;51.178;6.738;2024-03-23T06:47:23;8.00;;;3.22;;
72517;SDS011;60540;51.178;6.738;2024-03-23T06:50:09;9.23;;;3.58;;
72517;SDS011;60540;51.178;6.738;2024-03-23T06:52:53;8.20;;;3.17;;
72517;SDS011;60540;51.178;6.738;2024-03-23T06:55:38;9.38;;;3.08;;
72517;SDS011;60540;51.178;6.738;2024-03-23T06:58:23;6.97;;;2.72;;
72517;SDS011;60540;51.178;6.738;2024-03-23T07:01:08;9.13;;;3.20;;
72517;SDS011;60540;51.178;6.738;2024-03-23T07:03:52;7.35;;;2.75;;
72517;SDS011;60540;51.178;6.738;2024-03-23T07:06:42;7.70;;;3.25;;
72517;SDS011;60540;51.178;6.738;2024-03-23T07:09:27;8.40;;;3.08;;
72517;SDS011;60540;51.178;6.738;2024-03-23T07:12:12;9.68;;;3.58;;
72517;SDS011;60540;51.178;6.738;2024-03-23T07:14:56;9.43;;;3.60;;
72517;SDS011;60540;51.178;6.738;2024-03-23T07:17:40;12.95;;;3.80;;
72517;SDS011;60540;51.178;6.738;2024-03-23T07:20:24;11.45;;;3.80;;
72517;SDS011;60540;51.178;6.738;2024-03-23T07:23:08;9.93;;;3.45;;
72517;SDS011;60540;51.178;6.738;2024-03-23T07:25:56;10.30;;;3.75;;
72517;SDS011;60540;51.178;6.738;2024-03-23T07:28:42;9.85;;;3.67;;
72517;SDS011;60540;51.178;6.738;2024-03-23T07:31:28;10.15;;;3.72;;
72517;SDS011;60540;51.178;6.738;2024-03-23T07:34:12;16.52;;;4.10;;
72517;SDS011;60540;51.178;6.738;2024-03-23T07:36:57;11.25;;;3.65;;
72517;SDS011;60540;51.178;6.738;2024-03-23T07:39:41;11.73;;;4.53;;
72517;SDS011;60540;51.178;6.738;2024-03-23T07:42:25;10.35;;;4.13;;
72517;SDS011;60540;51.178;6.738;2024-03-23T07:45:10;14.20;;;4.43;;
72517;SDS011;60540;51.178;6.738;2024-03-23T07:47:55;15.32;;;4.47;;
72517;SDS011;60540;51.178;6.738;2024-03-23T07:50:39;10.18;;;3.90;;
72517;SDS011;60540;51.178;6.738;2024-03-23T07:53:23;10.43;;;4.35;;
72517;SDS011;60540;51.178;6.738;2024-03-23T07:56:08;14.90;;;4.57;;
72517;SDS011;60540;51.178;6.738;2024-03-23T07:58:56;10.38;;;4.43;;
72517;SDS011;60540;51.178;6.738;2024-03-23T08:01:40;9.52;;;3.95;;
72517;SDS011;60540;51.178;6.738;2024-03-23T08:04:23;10.02;;;4.35;;
72517;SDS011;60540;51.178;6.738;2024-03-23T08:07:08;9.32;;;3.83;;
72517;SDS011;60540;51.178;6.738;2024-03-23T08:09:52;13.55;;;4.38;;
72517;SDS011;60540;51.178;6.738;2024-03-23T08:12:36;10.50;;;4.28;;
72517;SDS011;60540;51.178;6.738;2024-03-23T08:15:20;9.57;;;3.63;;
72517;SDS011;60540;51.178;6.738;2024-03-23T08:18:04;9.98;;;3.63;;
72517;SDS011;60540;51.178;6.738;2024-03-23T08:23:45;9.65;;;2.92;;
72517;SDS011;60540;51.178;6.738;2024-03-23T08:26:29;5.22;;;2.35;;
72517;SDS011;60540;51.178;6.738;2024-03-23T08:29:14;6.63;;;2.40;;
72517;SDS011;60540;51.178;6.738;2024-03-23T08:31:58;10.30;;;3.20;;
72517;SDS011;60540;51.178;6.738;2024-03-23T08:34:42;9.23;;;2.83;;
72517;SDS011;60540;51.178;6.738;2024-03-23T08:37:26;4.28;;;2.10;;
72517;SDS011;60540;51.178;6.738;2024-03-23T08:40:11;6.85;;;2.33;;
72517;SDS011;60540;51.178;6.738;2024-03-23T08:42:55;6.32;;;2.45;;
72517;SDS011;60540;51.178;6.738;2024-03-23T08:45:39;10.15;;;2.75;;
72517;SDS011;60540;51.178;6.738;2024-03-23T08:48:23;7.85;;;2.20;;
72517;SDS011;60540;51.178;6.738;2024-03-23T08:51:08;8.27;;;3.00;;
72517;SDS011;60540;51.178;6.738;2024-03-23T08:53:53;3.90;;;1.75;;
72517;SDS011;60540;51.178;6.738;2024-03-23T08:56:37;4.80;;;1.90;;
72517;SDS011;60540;51.178;6.738;2024-03-23T08:59:21;4.97;;;1.77;;
72517;SDS011;60540;51.178;6.738;2024-03-23T09:02:07;8.20;;;2.33;;
72517;SDS011;60540;51.178;6.738;2024-03-23T09:04:51;7.22;;;2.42;;
72517;SDS011;60540;51.178;6.738;2024-03-23T09:07:36;5.80;;;2.42;;
72517;SDS011;60540;51.178;6.738;2024-03-23T09:10:20;8.45;;;2.90;;
72517;SDS011;60540;51.178;6.738;2024-03-23T09:13:06;4.95;;;2.45;;
72517;SDS011;60540;51.178;6.738;2024-03-23T09:15:51;7.60;;;2.80;;
72517;SDS011;60540;51.178;6.738;2024-03-23T09:18:40;8.45;;;3.13;;
72517;SDS011;60540;51.178;6.738;2024-03-23T09:21:24;10.18;;;3.15;;
72517;SDS011;60540;51.178;6.738;2024-03-23T09:24:09;9.35;;;3.33;;
72517;SDS011;60540;51.178;6.738;2024-03-23T09:26:52;6.35;;;2.80;;
72517;SDS011;60540;51.178;6.738;2024-03-23T09:29:37;8.00;;;3.08;;
72517;SDS011;60540;51.178;6.738;2024-03-23T09:32:21;7.47;;;3.00;;
72517;SDS011;60540;51.178;6.738;2024-03-23T09:35:05;7.03;;;2.38;;
72517;SDS011;60540;51.178;6.738;2024-03-23T09:37:49;7.38;;;2.45;;
72517;SDS011;60540;51.178;6.738;2024-03-23T09:40:33;8.55;;;3.10;;
72517;SDS011;60540;51.178;6.738;2024-03-23T09:43:17;7.47;;;2.42;;
72517;SDS011;60540;51.178;6.738;2024-03-23T09:46:02;6.78;;;2.65;;
72517;SDS011;60540;51.178;6.738;2024-03-23T09:48:47;9.35;;;3.03;;
72517;SDS011;60540;51.178;6.738;2024-03-23T09:51:31;5.88;;;2.53;;
72517;SDS011;60540;51.178;6.738;2024-03-23T09:54:15;7.32;;;2.55;;
72517;SDS011;60540;51.178;6.738;2024-03-23T09:56:59;4.40;;;2.00;;
72517;SDS011;60540;51.178;6.738;2024-03-23T09:59:43;9.95;;;2.38;;
72517;SDS011;60540;51.178;6.738;2024-03-23T10:02:28;5.45;;;1.95;;
72517;SDS011;60540;51.178;6.738;2024-03-23T10:05:21;6.72;;;1.83;;
72517;SDS011;60540;51.178;6.738;2024-03-23T10:10:59;4.85;;;2.15;;
72517;SDS011;60540;51.178;6.738;2024-03-23T10:13:56;6.07;;;2.35;;
72517;SDS011;60540;51.178;6.738;2024-03-23T10:16:40;4.95;;;1.60;;
72517;SDS011;60540;51.178;6.738;2024-03-23T10:19:31;4.57;;;1.90;;
72517;SDS011;60540;51.178;6.738;2024-03-23T10:22:18;6.18;;;2.28;;
72517;SDS011;60540;51.178;6.738;2024-03-23T10:25:09;6.05;;;1.60;;
72517;SDS011;60540;51.178;6.738;2024-03-23T10:27:59;4.18;;;1.50;;
72517;SDS011;60540;51.178;6.738;2024-03-23T10:30:45;3.97;;;1.20;;
72517;SDS011;60540;51.178;6.738;2024-03-23T10:33:29;3.00;;;0.95;;
72517;SDS011;60540;51.178;6.738;2024-03-23T10:36:14;3.03;;;0.80;;
72517;SDS011;60540;51.178;6.738;2024-03-23T10:38:58;2.50;;;0.82;;
72517;SDS011;60540;51.178;6.738;2024-03-23T10:41:43;1.77;;;0.88;;
72517;SDS011;60540;51.178;6.738;2024-03-23T10:44:28;2.65;;;0.90;;
72517;SDS011;60540;51.178;6.738;2024-03-23T10:47:14;4.32;;;1.05;;
72517;SDS011;60540;51.178;6.738;2024-03-23T10:49:58;2.95;;;0.93;;
72517;SDS011;60540;51.178;6.738;2024-03-23T10:52:44;3.00;;;1.10;;
72517;SDS011;60540;51.178;6.738;2024-03-23T10:55:30;3.70;;;1.00;;
72517;SDS011;60540;51.178;6.738;2024-03-23T10:58:14;3.35;;;0.98;;
72517;SDS011;60540;51.178;6.738;2024-03-23T11:01:00;2.72;;;0.90;;
72517;SDS011;60540;51.178;6.738;2024-03-23T11:03:47;2.08;;;0.85;;
72517;SDS011;60540;51.178;6.738;2024-03-23T11:06:37;1.50;;;0.70;;
72517;SDS011;60540;51.178;6.738;2024-03-23T11:15:11;3.45;;;0.88;;
72517;SDS011;60540;51.178;6.738;2024-03-23T11:18:02;1.73;;;0.88;;
72517;SDS011;60540;51.178;6.738;2024-03-23T11:20:48;1.90;;;0.90;;
72517;SDS011;60540;51.178;6.738;2024-03-23T11:23:32;1.95;;;0.70;;
72517;SDS011;60540;51.178;6.738;2024-03-23T11:26:17;2.75;;;0.80;;
72517;SDS011;60540;51.178;6.738;2024-03-23T11:29:14;2.08;;;0.90;;
72517;SDS011;60540;51.178;6.738;2024-03-23T11:31:59;2.42;;;0.80;;
72517;SDS011;60540;51.178;6.738;2024-03-23T11:34:45;4.20;;;1.27;;
72517;SDS011;60540;51.178;6.738;2024-03-23T11:37:29;2.35;;;1.20;;
72517;SDS011;60540;51.178;6.738;2024-03-23T11:40:17;2.63;;;1.20;;
72517;SDS011;60540;51.178;6.738;2024-03-23T11:43:02;4.72;;;3.00;;
72517;SDS011;60540;51.178;6.738;2024-03-23T11:45:55;2.47;;;1.33;;
72517;SDS011;60540;51.178;6.738;2024-03-23T11:48:41;4.85;;;1.70;;
72517;SDS011;60540;51.178;6.738;2024-03-23T11:51:33;4.95;;;1.60;;
72517;SDS011;60540;51.178;6.738;2024-03-23T11:54:25;7.53;;;1.75;;
72517;SDS011;60540;51.178;6.738;2024-03-23T11:57:10;1.20;;;0.52;;
72517;SDS011;60540;51.178;6.738;2024-03-23T11:59:55;0.93;;;0.60;;
72517;SDS011;60540;51.178;6.738;2024-03-23T12:02:39;1.20;;;0.50;;
72517;SDS011;60540;51.178;6.738;2024-03-23T12:05:25;1.92;;;0.80;;
72517;SDS011;60540;51.178;6.738;2024-03-23T12:13:57;1.40;;;0.90;;
72517;SDS011;60540;51.178;6.738;2024-03-23T12:16:43;1.77;;;0.70;;
72517;SDS011;60540;51.178;6.738;2024-03-23T12:19:27;5.25;;;1.05;;
72517;SDS011;60540;51.178;6.738;2024-03-23T12:22:12;3.70;;;1.20;;
72517;SDS011;60540;51.178;6.738;2024-03-23T12:24:56;5.18;;;1.13;;
72517;SDS011;60540;51.178;6.738;2024-03-23T12:27:41;3.10;;;1.20;;
72517;SDS011;60540;51.178;6.738;2024-03-23T12:30:25;2.72;;;1.20;;
72517;SDS011;60540;51.178;6.738;2024-03-23T12:33:09;3.67;;;1.25;;
72517;SDS011;60540;51.178;6.738;2024-03-23T12:35:53;1.75;;;0.70;;
72517;SDS011;60540;51.178;6.738;2024-03-23T12:38:38;0.75;;;0.60;;
72517;SDS011;60540;51.178;6.738;2024-03-23T12:41:22;0.75;;;0.60;;
72517;SDS011;60540;51.178;6.738;2024-03-23T12:44:07;1.38;;;0.57;;
72517;SDS011;60540;51.178;6.738;2024-03-23T12:46:53;0.57;;;0.40;;
72517;SDS011;60540;51.178;6.738;2024-03-23T12:49:38;2.83;;;0.52;;
72517;SDS011;60540;51.178;6.738;2024-03-23T12:52:21;1.77;;;0.35;;
72517;SDS011;60540;51.178;6.738;2024-03-23T12:55:08;1.02;;;0.40;;
72517;SDS011;60540;51.178;6.738;2024-03-23T12:57:52;1.65;;;0.50;;
72517;SDS011;60540;51.178;6.738;2024-03-23T13:00:36;1.80;;;0.85;;
72517;SDS011;60540;51.178;6.738;2024-03-23T13:03:20;1.27;;;0.40;;
72517;SDS011;60540;51.178;6.738;2024-03-23T13:06:05;2.15;;;0.70;;
72517;SDS011;60540;51.178;6.738;2024-03-23T13:08:51;2.53;;;0.80;;
72517;SDS011;60540;51.178;6.738;2024-03-23T13:11:38;1.98;;;0.80;;
72517;SDS011;60540;51.178;6.738;2024-03-23T13:14:22;2.35;;;0.80;;
72517;SDS011;60540;51.178;6.738;2024-03-23T13:17:07;2.15;;;0.43;;
72517;SDS011;60540;51.178;6.738;2024-03-23T13:19:51;2.88;;;0.60;;
72517;SDS011;60540;51.178;6.738;2024-03-23T13:22:36;1.58;;;0.68;;
72517;SDS011;60540;51.178;6.738;2024-03-23T13:25:20;2.05;;;0.60;;
72517;SDS011;60540;51.178;6.738;2024-03-23T13:28:04;2.72;;;0.55;;
72517;SDS011;60540;51.178;6.738;2024-03-23T13:30:49;2.70;;;0.50;;
72517;SDS011;60540;51.178;6.738;2024-03-23T13:33:37;1.75;;;0.77;;
72517;SDS011;60540;51.178;6.738;2024-03-23T13:36:21;4.68;;;1.25;;
72517;SDS011;60540;51.178;6.738;2024-03-23T13:39:06;1.08;;;0.70;;
72517;SDS011;60540;51.178;6.738;2024-03-23T13:41:54;2.05;;;0.65;;
72517;SDS011;60540;51.178;6.738;2024-03-23T13:44:39;3.33;;;0.95;;
72517;SDS011;60540;51.178;6.738;2024-03-23T13:47:23;3.83;;;1.00;;
72517;SDS011;60540;51.178;6.738;2024-03-23T13:50:08;2.40;;;0.73;;
72517;SDS011;60540;51.178;6.738;2024-03-23T13:52:53;3.63;;;1.10;;
72517;SDS011;60540;51.178;6.738;2024-03-23T13:55:37;1.63;;;0.80;;
72517;SDS011;60540;51.178;6.738;2024-03-23T13:58:21;2.50;;;1.05;;
72517;SDS011;60540;51.178;6.738;2024-03-23T14:01:05;2.25;;;0.90;;
72517;SDS011;60540;51.178;6.738;2024-03-23T14:03:49;2.65;;;1.20;;
72517;SDS011;60540;51.178;6.738;2024-03-23T14:06:33;4.00;;;1.17;;
72517;SDS011;60540;51.178;6.738;2024-03-23T14:09:17;3.55;;;1.15;;
72517;SDS011;60540;51.178;6.738;2024-03-23T14:12:07;3.00;;;0.93;;
72517;SDS011;60540;51.178;6.738;2024-03-23T14:14:53;1.83;;;0.93;;
72517;SDS011;60540;51.178;6.738;2024-03-23T14:17:41;3.70;;;1.10;;
72517;SDS011;60540;51.178;6.738;2024-03-23T14:20:25;2.38;;;1.45;;
72517;SDS011;60540;51.178;6.738;2024-03-23T14:23:10;5.07;;;1.15;;
72517;SDS011;60540;51.178;6.738;2024-03-23T14:25:56;4.93;;;1.17;;
72517;SDS011;60540;51.178;6.738;2024-03-23T14:28:41;3.33;;;1.00;;
72517;SDS011;60540;51.178;6.738;2024-03-23T14:31:25;2.00;;;1.02;;
72517;SDS011;60540;51.178;6.738;2024-03-23T14:34:09;1.40;;;0.65;;
72517;SDS011;60540;51.178;6.738;2024-03-23T14:36:54;1.70;;;0.82;;
72517;SDS011;60540;51.178;6.738;2024-03-23T14:39:38;1.73;;;0.90;;
72517;SDS011;60540;51.178;6.738;2024-03-23T14:42:25;1.80;;;0.82;;
72517;SDS011;60540;51.178;6.738;2024-03-23T14:45:10;2.40;;;0.88;;
72517;SDS011;60540;51.178;6.738;2024-03-23T14:47:55;1.83;;;0.90;;
72517;SDS011;60540;51.178;6.738;2024-03-23T14:50:42;3.47;;;1.10;;
72517;SDS011;60540;51.178;6.738;2024-03-23T14:53:26;4.57;;;1.00;;
72517;SDS011;60540;51.178;6.738;2024-03-23T14:56:13;2.40;;;0.77;;
72517;SDS011;60540;51.178;6.738;2024-03-23T14:58:59;2.40;;;0.82;;
72517;SDS011;60540;51.178;6.738;2024-03-23T15:01:44;3.03;;;1.20;;
72517;SDS011;60540;51.178;6.738;2024-03-23T15:04:28;2.13;;;1.00;;
72517;SDS011;60540;51.178;6.738;2024-03-23T15:07:12;3.92;;;0.80;;
72517;SDS011;60540;51.178;6.738;2024-03-23T15:09:56;3.05;;;1.08;;
72517;SDS011;60540;51.178;6.738;2024-03-23T15:12:40;2.30;;;1.10;;
72517;SDS011;60540;51.178;6.738;2024-03-23T15:15:25;1.35;;;0.80;;
72517;SDS011;60540;51.178;6.738;2024-03-23T15:18:10;1.85;;;0.73;;
72517;SDS011;60540;51.178;6.738;2024-03-23T15:20:56;4.07;;;1.25;;
72517;SDS011;60540;51.178;6.738;2024-03-23T15:23:46;2.40;;;1.10;;
72517;SDS011;60540;51.178;6.738;2024-03-23T15:26:31;1.17;;;0.75;;
72517;SDS011;60540;51.178;6.738;2024-03-23T15:29:16;1.88;;;0.98;;
72517;SDS011;60540;51.178;6.738;2024-03-23T15:32:00;2.70;;;1.17;;
72517;SDS011;60540;51.178;6.738;2024-03-23T15:34:45;2.83;;;1.00;;
72517;SDS011;60540;51.178;6.738;2024-03-23T15:37:31;2.53;;;1.50;;
72517;SDS011;60540;51.178;6.738;2024-03-23T15:40:15;2.53;;;0.85;;
72517;SDS011;60540;51.178;6.738;2024-03-23T15:42:59;1.85;;;1.00;;
72517;SDS011;60540;51.178;6.738;2024-03-23T15:45:44;3.45;;;1.35;;
72517;SDS011;60540;51.178;6.738;2024-03-23T15:48:28;1.55;;;1.00;;
72517;SDS011;60540;51.178;6.738;2024-03-23T15:51:13;2.85;;;0.98;;
72517;SDS011;60540;51.178;6.738;2024-03-23T15:53:58;1.83;;;0.90;;
72517;SDS011;60540;51.178;6.738;2024-03-23T15:56:42;1.95;;;0.82;;
72517;SDS011;60540;51.178;6.738;2024-03-23T15:59:27;1.85;;;1.30;;
72517;SDS011;60540;51.178;6.738;2024-03-23T16:02:11;1.98;;;0.80;;
72517;SDS011;60540;51.178;6.738;2024-03-23T16:04:55;0.93;;;0.70;;
72517;SDS011;60540;51.178;6.738;2024-03-23T16:07:42;2.10;;;0.80;;
72517;SDS011;60540;51.178;6.738;2024-03-23T16:10:26;4.65;;;1.05;;
72517;SDS011;60540;51.178;6.738;2024-03-23T16:13:10;5.13;;;1.10;;
72517;SDS011;60540;51.178;6.738;2024-03-23T16:15:54;2.78;;;0.88;;
72517;SDS011;60540;51.178;6.738;2024-03-23T16:18:39;2.75;;;0.80;;
72517;SDS011;60540;51.178;6.738;2024-03-23T16:21:23;4.57;;;0.80;;
72517;SDS011;60540;51.178;6.738;2024-03-23T16:24:07;4.93;;;1.48;;
72517;SDS011;60540;51.178;6.738;2024-03-23T16:26:51;1.95;;;1.02;;
72517;SDS011;60540;51.178;6.738;2024-03-23T16:29:36;3.42;;;1.00;;
72517;SDS011;60540;51.178;6.738;2024-03-23T16:32:20;2.08;;;1.20;;
72517;SDS011;60540;51.178;6.738;2024-03-23T16:35:07;3.42;;;0.90;;
72517;SDS011;60540;51.178;6.738;2024-03-23T16:37:53;2.70;;;0.90;;
72517;SDS011;60540;51.178;6.738;2024-03-23T16:40:37;3.60;;;0.98;;
72517;SDS011;60540;51.178;6.738;2024-03-23T16:43:21;1.88;;;0.73;;
72517;SDS011;60540;51.178;6.738;2024-03-23T16:46:07;0.93;;;0.57;;
72517;SDS011;60540;51.178;6.738;2024-03-23T16:48:55;1.95;;;0.80;;
72517;SDS011;60540;51.178;6.738;2024-03-23T16:51:40;2.20;;;0.88;;
72517;SDS011;60540;51.178;6.738;2024-03-23T16:54:24;3.63;;;0.90;;
72517;SDS011;60540;51.178;6.738;2024-03-23T16:57:07;2.40;;;0.73;;
72517;SDS011;60540;51.178;6.738;2024-03-23T16:59:51;1.83;;;0.70;;
72517;SDS011;60540;51.178;6.738;2024-03-23T17:02:35;1.45;;;0.73;;
72517;SDS011;60540;51.178;6.738;2024-03-23T17:05:22;1.95;;;0.77;;
72517;SDS011;60540;51.178;6.738;2024-03-23T17:08:06;1.65;;;0.70;;
72517;SDS011;60540;51.178;6.738;2024-03-23T17:10:51;1.83;;;0.88;;
72517;SDS011;60540;51.178;6.738;2024-03-23T17:13:41;1.67;;;0.70;;
72517;SDS011;60540;51.178;6.738;2024-03-23T17:16:25;2.30;;;0.80;;
72517;SDS011;60540;51.178;6.738;2024-03-23T17:19:13;2.67;;;1.15;;
72517;SDS011;60540;51.178;6.738;2024-03-23T17:21:57;3.40;;;0.93;;
72517;SDS011;60540;51.178;6.738;2024-03-23T17:24:42;3.85;;;1.00;;
72517;SDS011;60540;51.178;6.738;2024-03-23T17:27:26;1.75;;;0.80;;
72517;SDS011;60540;51.178;6.738;2024-03-23T17:30:11;2.00;;;0.95;;
72517;SDS011;60540;51.178;6.738;2024-03-23T17:32:59;3.53;;;0.90;;
72517;SDS011;60540;51.178;6.738;2024-03-23T17:35:43;3.20;;;1.30;;
72517;SDS011;60540;51.178;6.738;2024-03-23T17:38:28;4.03;;;1.40;;
72517;SDS011;60540;51.178;6.738;2024-03-23T17:41:13;2.20;;;1.00;;
72517;SDS011;60540;51.178;6.738;2024-03-23T17:43:57;4.07;;;1.17;;